Time;durP1;ratioP1;P1;durP2;ratioP2;P2;SDS_P1;SDS_P2;PMS_P1;PMS_P2;Temp;Humidity;BMP_temperature;BMP_pressure;BME280_temperature;BME280_humidity;BME280_pressure;Samples;Min_cycle;Max_cycle;Signal;HPM_P1;HPM_P2
2024/01/17 00:09:26;;;;;;;22.67;10.40;;;;;;;-4.64;71.90;99362.75;32138164;27;41980;-61
2024/01/17 00:24:26;;;;;;;27.27;11.77;;;;;;;-4.99;71.63;99339.72;32137249;27;40148;-63
2024/01/17 00:39:26;;;;;;;19.90;9.05;;;;;;;-5.45;71.87;99354.50;32137017;27;20031;-61
2024/01/17 00:54:27;;;;;;;16.00;8.23;;;;;;;-5.74;72.22;99339.75;32133288;27;25445;-61
2024/01/17 01:09:28;;;;;;;16.33;7.85;;;;;;;-6.04;72.21;99331.09;32132525;27;20061;-62
2024/01/17 01:24:28;;;;;;;17.42;8.32;;;;;;;-6.33;72.47;99310.22;32131631;27;20039;-61
2024/01/17 01:39:29;;;;;;;24.85;11.30;;;;;;;-6.55;72.41;99288.97;32129261;27;41415;-63
2024/01/17 01:54:30;;;;;;;21.98;9.93;;;;;;;-6.79;73.18;99281.63;32128516;27;42946;-64
2024/01/17 02:09:31;;;;;;;21.42;11.00;;;;;;;-6.90;73.22;99283.94;32129729;27;20467;-62
2024/01/17 02:24:31;;;;;;;17.15;9.25;;;;;;;-7.21;73.35;99291.56;32149919;27;20049;-61
2024/01/17 02:39:31;;;;;;;29.05;10.27;;;;;;;-7.38;73.46;99268.28;32147757;27;42833;-61
2024/01/17 02:54:32;;;;;;;26.50;11.20;;;;;;;-7.59;73.07;99265.91;32146308;27;20043;-61
2024/01/17 03:09:32;;;;;;;25.98;12.50;;;;;;;-7.61;73.16;99246.19;32144734;27;21247;-61
2024/01/17 03:24:32;;;;;;;23.40;9.50;;;;;;;-7.75;73.71;99240.00;32142503;27;20027;-62
2024/01/17 03:39:33;;;;;;;14.32;8.23;;;;;;;-8.02;72.87;99229.28;32140125;27;41676;-65
2024/01/17 03:54:35;;;;;;;14.84;7.50;;;;;;;-8.07;73.71;99215.75;32139284;27;20038;-61
2024/01/17 04:09:36;;;;;;;15.30;9.63;;;;;;;-8.13;73.12;99187.59;32137628;27;20046;-65
2024/01/17 04:24:36;;;;;;;14.45;8.50;;;;;;;-8.36;73.86;99145.69;32136044;27;20427;-61
2024/01/17 04:39:36;;;;;;;18.87;8.77;;;;;;;-8.46;73.42;99136.72;32004780;27;41615;-64
2024/01/17 04:54:36;;;;;;;24.52;11.68;;;;;;;-8.57;73.32;99125.19;32000596;27;42873;-65
2024/01/17 05:09:37;;;;;;;21.50;10.37;;;;;;;-8.62;74.25;99095.31;31692249;27;97074;-65
2024/01/17 05:24:38;;;;;;;15.60;10.33;;;;;;;-8.69;73.42;99069.00;31451436;27;97208;-64
2024/01/17 05:39:38;;;;;;;31.50;12.27;;;;;;;-8.75;74.38;99046.06;31455941;27;97970;-60
2024/01/17 05:54:38;;;;;;;24.83;12.77;;;;;;;-8.78;73.38;99057.38;31594763;27;125526;-65
2024/01/17 06:09:38;;;;;;;27.77;15.93;;;;;;;-8.87;74.16;99039.75;31601947;27;124302;-64
2024/01/17 06:24:39;;;;;;;25.70;11.70;;;;;;;-8.95;73.92;99045.28;31602985;27;125548;-65
2024/01/17 06:39:39;;;;;;;31.47;15.43;;;;;;;-9.05;74.37;99013.09;31600552;27;125389;-62
2024/01/17 06:54:39;;;;;;;21.87;13.13;;;;;;;-9.08;74.20;99006.34;31599360;27;97220;-61
2024/01/17 07:09:41;;;;;;;23.00;11.67;;;;;;;-9.13;75.04;98963.63;31596289;27;126874;-62
2024/01/17 07:24:44;;;;;;;21.80;11.93;;;;;;;-8.11;75.22;98938.53;31598241;27;97319;-64
2024/01/17 07:39:44;;;;;;;22.17;13.25;;;;;;;-6.95;74.12;98929.44;31592526;27;96638;-62
2024/01/17 07:54:44;;;;;;;37.53;14.88;;;;;;;-5.88;73.88;98900.44;31628887;27;124571;-65
2024/01/17 08:09:45;;;;;;;35.78;17.70;;;;;;;-3.94;73.25;98862.28;31732402;27;125419;-62
2024/01/17 08:24:45;;;;;;;40.25;20.52;;;;;;;-1.29;70.62;98814.88;32130273;27;40914;-66
2024/01/17 08:39:45;;;;;;;34.80;18.10;;;;;;;2.14;66.15;98791.00;32128055;27;41631;-62
2024/01/17 08:54:45;;;;;;;39.97;22.83;;;;;;;6.95;59.86;98759.50;31940342;27;96714;-62
2024/01/17 09:09:46;;;;;;;36.67;21.02;;;;;;;-147.20;100.00;63046.97;31781878;27;126649;-64
2024/01/17 09:24:47;;;;;;;37.53;20.52;;;;;;;-147.20;100.00;63046.97;32170849;27;20031;-61
2024/01/17 09:39:47;;;;;;;34.03;21.02;;;;;;;-147.20;100.00;63046.97;32171671;27;20597;-64
2024/01/17 09:54:50;;;;;;;29.38;18.98;;;;;;;-147.20;100.00;63046.97;32171380;27;20085;-63
2024/01/17 10:09:50;;;;;;;28.83;17.92;;;;;;;-147.20;100.00;63046.97;32168574;27;20035;-61
2024/01/17 10:24:51;;;;;;;25.17;14.85;;;;;;;-147.20;100.00;63046.97;32166312;27;33984;-63
2024/01/17 10:40:11;;;;;;;24.25;15.65;;;;;;;-147.20;100.00;63046.97;32179273;27;20027;-62
2024/01/17 10:55:14;;;;;;;27.45;16.45;;;;;;;-147.20;100.00;63046.97;32186884;27;20100;-63
2024/01/17 11:10:15;;;;;;;28.52;17.45;;;;;;;-147.20;100.00;63046.97;32185320;27;20558;-62
2024/01/17 11:25:40;;;;;;;32.05;19.38;;;;;;;-147.20;100.00;63046.97;32184468;27;20030;-66
2024/01/17 11:40:41;;;;;;;31.00;18.45;;;;;;;-147.20;100.00;63046.97;32182934;27;20053;-61
2024/01/17 11:55:49;;;;;;;41.58;19.98;;;;;;;-147.20;100.00;63046.97;32180097;27;20027;-61
2024/01/17 12:10:53;;;;;;;30.77;16.65;;;;;;;-147.20;100.00;63046.97;32180671;27;20048;-60
2024/01/17 12:25:55;;;;;;;32.70;17.75;;;;;;;-147.20;100.00;63046.97;32176897;27;20066;-61
2024/01/17 12:40:55;;;;;;;37.25;16.20;;;;;;;-147.20;100.00;63046.97;32176601;27;20046;-64
2024/01/17 12:55:58;;;;;;;25.50;14.95;;;;;;;-147.20;100.00;63046.97;32174456;27;20026;-62
2024/01/17 13:10:59;;;;;;;32.75;16.73;;;;;;;-147.20;100.00;63046.97;32173438;27;20034;-63
2024/01/17 13:26:00;;;;;;;31.15;14.52;;;;;;;-147.20;100.00;63046.97;32173056;27;20042;-64
2024/01/17 13:41:00;;;;;;;28.98;14.55;;;;;;;-147.20;100.00;63046.97;32168415;27;33729;-66
2024/01/17 13:56:04;;;;;;;31.75;14.93;;;;;;;-147.20;100.00;63046.97;32168688;27;20509;-64
2024/01/17 14:11:05;;;;;;;28.97;16.10;;;;;;;-147.20;100.00;63046.97;32177941;27;20038;-65
2024/01/17 14:26:05;;;;;;;35.08;18.67;;;;;;;-147.20;100.00;63046.97;32191242;27;34647;-64
2024/01/17 14:41:08;;;;;;;34.38;16.45;;;;;;;-147.20;100.00;63046.97;32187787;27;20398;-62
2024/01/17 14:56:08;;;;;;;33.42;16.58;;;;;;;-147.20;100.00;63046.97;32184707;27;20049;-67
2024/01/17 15:11:09;;;;;;;40.00;19.30;;;;;;;-147.20;100.00;63046.97;32167786;27;20035;-61
2024/01/17 15:26:09;;;;;;;31.63;15.10;;;;;;;-147.20;100.00;63046.97;32182800;27;34896;-62
2024/01/17 15:41:10;;;;;;;28.00;13.65;;;;;;;-147.20;100.00;63046.97;32180084;27;20134;-63
2024/01/17 15:56:10;;;;;;;29.00;13.57;;;;;;;-0.90;61.47;97915.00;32171247;27;20523;-61
2024/01/17 16:11:11;;;;;;;36.33;16.63;;;;;;;-0.74;61.36;97893.34;32015281;27;20031;-64
2024/01/17 16:26:12;;;;;;;28.05;16.05;;;;;;;-0.74;62.00;97870.66;31992733;27;20031;-65
2024/01/17 16:41:12;;;;;;;24.55;14.68;;;;;;;-0.73;62.26;97861.81;32001124;27;20050;-63
2024/01/17 16:56:13;;;;;;;32.95;16.45;;;;;;;-0.85;63.02;97836.91;32112479;27;36665;-67
2024/01/17 17:11:13;;;;;;;28.08;15.05;;;;;;;-0.89;64.16;97817.28;32126858;27;20479;-68
2024/01/17 17:26:13;;;;;;;24.90;13.73;;;;;;;-0.80;65.25;97777.13;32124116;27;41719;-66
2024/01/17 17:41:14;;;;;;;18.08;11.02;;;;;;;-0.66;66.43;97738.28;32124656;27;20050;-64
2024/01/17 17:56:14;;;;;;;24.45;13.55;;;;;;;-0.50;67.39;97725.25;32146823;27;21048;-64
2024/01/17 18:11:14;;;;;;;20.60;12.13;;;;;;;-0.33;67.88;97689.47;32149588;27;20431;-64
2024/01/17 18:26:14;;;;;;;25.17;13.25;;;;;;;-0.17;68.29;97657.28;32145431;27;20034;-65
2024/01/17 18:41:16;;;;;;;32.53;13.13;;;;;;;-0.05;68.34;97621.94;32141597;27;35834;-63
2024/01/17 18:56:16;;;;;;;30.08;13.82;;;;;;;0.07;68.92;97585.75;32142698;27;20099;-64
2024/01/17 19:11:17;;;;;;;19.73;12.13;;;;;;;0.17;68.84;97544.47;32140222;27;41505;-67
2024/01/17 19:26:17;;;;;;;27.67;13.48;;;;;;;0.35;69.24;97537.41;32138263;27;20053;-67
2024/01/17 19:41:22;;;;;;;28.25;13.98;;;;;;;0.44;68.93;97503.13;32136985;27;42994;-63
2024/01/17 19:56:22;;;;;;;21.50;11.02;;;;;;;0.49;69.15;97460.69;32137773;27;20113;-67
2024/01/17 20:11:23;;;;;;;19.85;11.88;;;;;;;0.52;69.98;97425.47;32137048;27;20142;-66
2024/01/17 20:26:24;;;;;;;24.55;13.38;;;;;;;0.51;70.08;97416.81;32132981;27;40442;-66
2024/01/17 20:41:25;;;;;;;26.60;13.73;;;;;;;0.62;70.55;97397.25;32131609;27;20053;-65
2024/01/17 20:56:25;;;;;;;31.20;14.23;;;;;;;0.82;70.37;97381.84;32044704;27;20383;-67
2024/01/17 21:11:26;;;;;;;24.70;12.45;;;;;;;0.86;70.49;97366.59;31993756;27;20027;-65
2024/01/17 21:26:31;;;;;;;27.85;13.52;;;;;;;0.96;71.00;97339.13;31991671;27;20031;-66
2024/01/17 21:41:31;;;;;;;25.98;13.48;;;;;;;1.22;71.29;97332.66;32005141;27;20641;-64
2024/01/17 21:56:31;;;;;;;24.35;13.65;;;;;;;1.28;70.59;97310.94;32120150;27;20065;-68
2024/01/17 22:11:32;;;;;;;23.67;12.38;;;;;;;1.32;70.88;97267.59;32098462;27;24128;-68
2024/01/17 22:26:32;;;;;;;25.92;14.27;;;;;;;1.48;71.11;97299.91;32087054;27;20487;-65
2024/01/17 22:41:32;;;;;;;26.40;13.45;;;;;;;1.54;71.20;97293.09;32009331;27;41465;-69
2024/01/17 22:56:37;;;;;;;35.75;14.77;;;;;;;1.48;71.46;97276.28;32009583;27;20039;-67
2024/01/17 23:11:38;;;;;;;105.10;58.00;;;;;;;1.71;72.01;97272.69;32008228;27;20132;-64
2024/01/17 23:26:38;;;;;;;33.92;15.70;;;;;;;1.62;71.61;97280.69;32009412;27;20614;-67
2024/01/17 23:41:38;;;;;;;31.20;14.90;;;;;;;1.68;72.03;97279.94;32134987;27;44075;-67
2024/01/17 23:56:38;;;;;;;30.83;15.00;;;;;;;1.91;72.30;97283.41;32140186;27;41574;-68
